sensor_id;sensor_type;location;lat;lon;timestamp;temperature;humidity
59015;DHT22;44799;53.382;14.666;2023-04-06T00:00:33;4.10;99.90
59015;DHT22;44799;53.382;14.666;2023-04-06T00:02:59;5.00;99.90
59015;DHT22;44799;53.382;14.666;2023-04-06T00:05:25;1.40;99.90
59015;DHT22;44799;53.382;14.666;2023-04-06T00:07:50;4.70;99.90
59015;DHT22;44799;53.382;14.666;2023-04-06T00:10:18;2.60;99.90
59015;DHT22;44799;53.382;14.666;2023-04-06T00:12:43;1.30;99.90
59015;DHT22;44799;53.382;14.666;2023-04-06T00:15:09;1.70;99.90
59015;DHT22;44799;53.382;14.666;2023-04-06T00:17:35;2.80;99.90
59015;DHT22;44799;53.382;14.666;2023-04-06T00:20:01;1.50;99.90
59015;DHT22;44799;53.382;14.666;2023-04-06T00:22:27;1.80;99.90
59015;DHT22;44799;53.382;14.666;2023-04-06T00:24:52;3.40;99.90
59015;DHT22;44799;53.382;14.666;2023-04-06T00:27:18;1.80;99.90
59015;DHT22;44799;53.382;14.666;2023-04-06T00:29:43;5.00;99.90
59015;DHT22;44799;53.382;14.666;2023-04-06T00:32:10;1.10;99.90
59015;DHT22;44799;53.382;14.666;2023-04-06T00:34:35;1.40;99.90
59015;DHT22;44799;53.382;14.666;2023-04-06T00:37:01;1.80;99.90
59015;DHT22;44799;53.382;14.666;2023-04-06T00:39:27;2.90;99.90
59015;DHT22;44799;53.382;14.666;2023-04-06T00:41:52;2.10;99.90
59015;DHT22;44799;53.382;14.666;2023-04-06T00:44:19;1.70;99.90
59015;DHT22;44799;53.382;14.666;2023-04-06T00:46:45;3.00;99.90
59015;DHT22;44799;53.382;14.666;2023-04-06T00:51:37;1.30;99.90
59015;DHT22;44799;53.382;14.666;2023-04-06T00:54:02;3.00;99.90
59015;DHT22;44799;53.382;14.666;2023-04-06T01:01:20;5.00;99.90
59015;DHT22;44799;53.382;14.666;2023-04-06T01:03:46;2.80;99.90
59015;DHT22;44799;53.382;14.666;2023-04-06T01:06:14;3.00;99.90
59015;DHT22;44799;53.382;14.666;2023-04-06T01:08:40;1.80;99.90
59015;DHT22;44799;53.382;14.666;2023-04-06T01:11:05;1.50;99.90
59015;DHT22;44799;53.382;14.666;2023-04-06T01:13:31;1.70;99.90
59015;DHT22;44799;53.382;14.666;2023-04-06T01:15:57;3.70;99.90
59015;DHT22;44799;53.382;14.666;2023-04-06T01:20:50;1.80;99.90
59015;DHT22;44799;53.382;14.666;2023-04-06T01:23:15;2.80;99.90
59015;DHT22;44799;53.382;14.666;2023-04-06T01:25:41;2.20;99.90
59015;DHT22;44799;53.382;14.666;2023-04-06T01:28:07;2.90;99.90
59015;DHT22;44799;53.382;14.666;2023-04-06T01:30:32;4.80;99.90
59015;DHT22;44799;53.382;14.666;2023-04-06T01:32:58;3.00;99.90
59015;DHT22;44799;53.382;14.666;2023-04-06T01:35:25;4.30;99.90
59015;DHT22;44799;53.382;14.666;2023-04-06T01:37:51;5.30;99.90
59015;DHT22;44799;53.382;14.666;2023-04-06T01:40:17;1.30;99.90
59015;DHT22;44799;53.382;14.666;2023-04-06T01:42:42;1.40;99.90
59015;DHT22;44799;53.382;14.666;2023-04-06T01:45:08;3.30;99.90
59015;DHT22;44799;53.382;14.666;2023-04-06T01:47:34;1.30;99.90
59015;DHT22;44799;53.382;14.666;2023-04-06T01:49:59;2.80;99.90
59015;DHT22;44799;53.382;14.666;2023-04-06T01:52:25;5.10;99.90
59015;DHT22;44799;53.382;14.666;2023-04-06T01:54:51;4.20;99.90
59015;DHT22;44799;53.382;14.666;2023-04-06T01:57:17;1.30;99.90
59015;DHT22;44799;53.382;14.666;2023-04-06T01:59:43;4.70;99.90
59015;DHT22;44799;53.382;14.666;2023-04-06T02:02:09;1.60;99.90
59015;DHT22;44799;53.382;14.666;2023-04-06T02:04:34;1.10;99.90
59015;DHT22;44799;53.382;14.666;2023-04-06T02:07:00;4.10;99.90
59015;DHT22;44799;53.382;14.666;2023-04-06T02:09:26;1.10;99.90
59015;DHT22;44799;53.382;14.666;2023-04-06T02:11:52;2.70;99.90
59015;DHT22;44799;53.382;14.666;2023-04-06T02:14:17;2.50;99.90
59015;DHT22;44799;53.382;14.666;2023-04-06T02:16:43;0.90;99.90
59015;DHT22;44799;53.382;14.666;2023-04-06T02:19:08;1.20;99.90
59015;DHT22;44799;53.382;14.666;2023-04-06T02:21:34;3.60;99.90
59015;DHT22;44799;53.382;14.666;2023-04-06T02:24:00;1.00;99.90
59015;DHT22;44799;53.382;14.666;2023-04-06T02:26:27;2.80;99.90
59015;DHT22;44799;53.382;14.666;2023-04-06T02:31:18;2.50;99.90
59015;DHT22;44799;53.382;14.666;2023-04-06T02:33:44;5.20;99.90
59015;DHT22;44799;53.382;14.666;2023-04-06T02:36:10;2.80;99.90
59015;DHT22;44799;53.382;14.666;2023-04-06T02:38:35;2.90;99.90
59015;DHT22;44799;53.382;14.666;2023-04-06T02:41:01;5.30;99.90
59015;DHT22;44799;53.382;14.666;2023-04-06T02:43:27;1.50;99.90
59015;DHT22;44799;53.382;14.666;2023-04-06T02:45:52;3.80;99.90
59015;DHT22;44799;53.382;14.666;2023-04-06T02:48:18;3.20;99.90
59015;DHT22;44799;53.382;14.666;2023-04-06T02:50:44;4.00;99.90
59015;DHT22;44799;53.382;14.666;2023-04-06T02:53:10;4.50;99.90
59015;DHT22;44799;53.382;14.666;2023-04-06T02:58:01;4.60;99.90
59015;DHT22;44799;53.382;14.666;2023-04-06T03:00:27;5.30;99.90
59015;DHT22;44799;53.382;14.666;2023-04-06T03:02:53;2.00;99.90
59015;DHT22;44799;53.382;14.666;2023-04-06T03:05:18;4.80;99.90
59015;DHT22;44799;53.382;14.666;2023-04-06T03:07:44;2.80;99.90
59015;DHT22;44799;53.382;14.666;2023-04-06T03:10:10;2.70;99.90
59015;DHT22;44799;53.382;14.666;2023-04-06T03:12:35;2.10;99.90
59015;DHT22;44799;53.382;14.666;2023-04-06T03:15:01;1.00;99.90
59015;DHT22;44799;53.382;14.666;2023-04-06T03:17:27;3.20;99.90
59015;DHT22;44799;53.382;14.666;2023-04-06T03:19:53;1.00;99.90
59015;DHT22;44799;53.382;14.666;2023-04-06T03:22:19;4.80;99.90
59015;DHT22;44799;53.382;14.666;2023-04-06T03:24:45;0.30;99.90
59015;DHT22;44799;53.382;14.666;2023-04-06T03:27:11;4.20;99.90
59015;DHT22;44799;53.382;14.666;2023-04-06T03:29:37;3.90;99.90
59015;DHT22;44799;53.382;14.666;2023-04-06T03:34:28;4.80;99.90
59015;DHT22;44799;53.382;14.666;2023-04-06T03:36:54;4.30;99.90
59015;DHT22;44799;53.382;14.666;2023-04-06T03:39:20;1.40;99.90
59015;DHT22;44799;53.382;14.666;2023-04-06T03:41:45;0.30;99.90
59015;DHT22;44799;53.382;14.666;2023-04-06T03:44:11;1.50;99.90
59015;DHT22;44799;53.382;14.666;2023-04-06T03:46:37;4.30;99.90
59015;DHT22;44799;53.382;14.666;2023-04-06T03:49:02;3.20;99.90
59015;DHT22;44799;53.382;14.666;2023-04-06T03:53:54;3.40;99.90
59015;DHT22;44799;53.382;14.666;2023-04-06T03:58:46;4.00;99.90
59015;DHT22;44799;53.382;14.666;2023-04-06T04:01:16;3.40;99.90
59015;DHT22;44799;53.382;14.666;2023-04-06T04:03:42;4.10;99.90
59015;DHT22;44799;53.382;14.666;2023-04-06T04:06:08;4.00;99.90
59015;DHT22;44799;53.382;14.666;2023-04-06T04:08:33;1.50;99.90
59015;DHT22;44799;53.382;14.666;2023-04-06T04:13:26;1.80;99.90
59015;DHT22;44799;53.382;14.666;2023-04-06T04:15:52;4.20;99.90
59015;DHT22;44799;53.382;14.666;2023-04-06T04:18:18;3.60;99.90
59015;DHT22;44799;53.382;14.666;2023-04-06T04:20:44;3.90;99.90
59015;DHT22;44799;53.382;14.666;2023-04-06T04:23:10;3.80;99.90
59015;DHT22;44799;53.382;14.666;2023-04-06T04:25:35;3.80;99.90
59015;DHT22;44799;53.382;14.666;2023-04-06T04:28:01;4.40;99.90
59015;DHT22;44799;53.382;14.666;2023-04-06T04:30:27;4.60;99.90
59015;DHT22;44799;53.382;14.666;2023-04-06T04:32:53;2.80;99.90
59015;DHT22;44799;53.382;14.666;2023-04-06T04:35:19;0.90;99.90
59015;DHT22;44799;53.382;14.666;2023-04-06T04:37:45;5.10;99.90
59015;DHT22;44799;53.382;14.666;2023-04-06T04:42:36;4.40;99.90
59015;DHT22;44799;53.382;14.666;2023-04-06T04:45:02;4.90;99.90
59015;DHT22;44799;53.382;14.666;2023-04-06T04:47:28;4.20;99.90
59015;DHT22;44799;53.382;14.666;2023-04-06T04:49:53;4.00;99.90
59015;DHT22;44799;53.382;14.666;2023-04-06T04:52:19;0.50;99.90
59015;DHT22;44799;53.382;14.666;2023-04-06T04:54:45;0.50;99.90
59015;DHT22;44799;53.382;14.666;2023-04-06T04:57:12;3.40;99.90
59015;DHT22;44799;53.382;14.666;2023-04-06T04:59:38;5.00;99.90
59015;DHT22;44799;53.382;14.666;2023-04-06T05:02:03;0.60;99.90
59015;DHT22;44799;53.382;14.666;2023-04-06T05:04:29;0.90;99.90
59015;DHT22;44799;53.382;14.666;2023-04-06T05:07:05;2.60;99.90
59015;DHT22;44799;53.382;14.666;2023-04-06T05:09:31;3.00;99.90
59015;DHT22;44799;53.382;14.666;2023-04-06T05:11:57;4.40;99.90
59015;DHT22;44799;53.382;14.666;2023-04-06T05:14:23;0.80;99.90
59015;DHT22;44799;53.382;14.666;2023-04-06T05:19:15;4.30;99.90
59015;DHT22;44799;53.382;14.666;2023-04-06T05:21:41;3.80;99.90
59015;DHT22;44799;53.382;14.666;2023-04-06T05:24:07;2.80;99.90
59015;DHT22;44799;53.382;14.666;2023-04-06T05:26:32;3.90;99.90
59015;DHT22;44799;53.382;14.666;2023-04-06T05:28:58;4.50;99.90
59015;DHT22;44799;53.382;14.666;2023-04-06T05:33:50;2.10;99.90
59015;DHT22;44799;53.382;14.666;2023-04-06T05:38:42;4.50;99.90
59015;DHT22;44799;53.382;14.666;2023-04-06T05:45:59;3.60;99.90
59015;DHT22;44799;53.382;14.666;2023-04-06T05:48:25;3.90;99.90
59015;DHT22;44799;53.382;14.666;2023-04-06T05:50:51;4.60;99.90
59015;DHT22;44799;53.382;14.666;2023-04-06T05:55:43;3.70;99.90
59015;DHT22;44799;53.382;14.666;2023-04-06T05:58:08;5.10;99.90
59015;DHT22;44799;53.382;14.666;2023-04-06T06:00:34;4.70;99.90
59015;DHT22;44799;53.382;14.666;2023-04-06T06:03:00;3.90;99.90
59015;DHT22;44799;53.382;14.666;2023-04-06T06:05:29;3.20;99.90
59015;DHT22;44799;53.382;14.666;2023-04-06T06:07:55;3.30;99.90
59015;DHT22;44799;53.382;14.666;2023-04-06T06:10:21;3.20;99.90
59015;DHT22;44799;53.382;14.666;2023-04-06T06:12:46;4.80;99.90
59015;DHT22;44799;53.382;14.666;2023-04-06T06:15:12;1.80;99.90
59015;DHT22;44799;53.382;14.666;2023-04-06T06:17:38;3.00;99.90
59015;DHT22;44799;53.382;14.666;2023-04-06T06:22:30;5.30;99.90
59015;DHT22;44799;53.382;14.666;2023-04-06T06:27:22;3.10;99.90
59015;DHT22;44799;53.382;14.666;2023-04-06T06:29:48;1.90;99.90
59015;DHT22;44799;53.382;14.666;2023-04-06T06:32:13;3.70;99.90
59015;DHT22;44799;53.382;14.666;2023-04-06T06:34:39;1.80;99.90
59015;DHT22;44799;53.382;14.666;2023-04-06T06:37:05;3.60;99.90
59015;DHT22;44799;53.382;14.666;2023-04-06T06:39:31;2.30;99.90
59015;DHT22;44799;53.382;14.666;2023-04-06T06:41:57;2.50;99.90
59015;DHT22;44799;53.382;14.666;2023-04-06T06:44:22;3.90;99.90
59015;DHT22;44799;53.382;14.666;2023-04-06T06:46:48;2.90;99.90
59015;DHT22;44799;53.382;14.666;2023-04-06T06:49:14;1.50;99.90
59015;DHT22;44799;53.382;14.666;2023-04-06T06:51:39;2.50;99.90
59015;DHT22;44799;53.382;14.666;2023-04-06T06:54:05;4.10;99.90
59015;DHT22;44799;53.382;14.666;2023-04-06T06:56:31;2.50;99.90
59015;DHT22;44799;53.382;14.666;2023-04-06T06:58:57;2.70;99.90
59015;DHT22;44799;53.382;14.666;2023-04-06T07:01:22;2.80;99.90
59015;DHT22;44799;53.382;14.666;2023-04-06T07:03:48;5.10;99.90
59015;DHT22;44799;53.382;14.666;2023-04-06T07:08:40;6.50;99.90
59015;DHT22;44799;53.382;14.666;2023-04-06T07:11:05;3.00;99.90
59015;DHT22;44799;53.382;14.666;2023-04-06T07:13:31;6.50;99.90
59015;DHT22;44799;53.382;14.666;2023-04-06T07:15:57;5.90;99.90
59015;DHT22;44799;53.382;14.666;2023-04-06T07:20:48;3.60;99.90
59015;DHT22;44799;53.382;14.666;2023-04-06T07:23:14;7.20;99.90
59015;DHT22;44799;53.382;14.666;2023-04-06T07:25:40;7.50;99.90
59015;DHT22;44799;53.382;14.666;2023-04-06T07:28:06;5.20;99.90
59015;DHT22;44799;53.382;14.666;2023-04-06T07:30:31;6.70;99.90
59015;DHT22;44799;53.382;14.666;2023-04-06T07:32:57;4.40;99.90
59015;DHT22;44799;53.382;14.666;2023-04-06T07:35:24;7.20;99.90
59015;DHT22;44799;53.382;14.666;2023-04-06T07:37:53;4.60;99.90
59015;DHT22;44799;53.382;14.666;2023-04-06T07:42:45;7.70;99.90
59015;DHT22;44799;53.382;14.666;2023-04-06T07:45:11;5.50;99.90
59015;DHT22;44799;53.382;14.666;2023-04-06T07:47:37;8.70;99.90
59015;DHT22;44799;53.382;14.666;2023-04-06T07:50:03;6.00;99.90
59015;DHT22;44799;53.382;14.666;2023-04-06T07:52:28;4.90;99.60
59015;DHT22;44799;53.382;14.666;2023-04-06T07:57:20;4.00;98.90
59015;DHT22;44799;53.382;14.666;2023-04-06T07:59:46;7.40;99.90
59015;DHT22;44799;53.382;14.666;2023-04-06T08:02:11;5.40;99.80
59015;DHT22;44799;53.382;14.666;2023-04-06T08:07:03;7.60;99.60
59015;DHT22;44799;53.382;14.666;2023-04-06T08:11:55;8.00;98.00
59015;DHT22;44799;53.382;14.666;2023-04-06T08:14:20;7.20;98.70
59015;DHT22;44799;53.382;14.666;2023-04-06T08:16:46;4.40;99.50
59015;DHT22;44799;53.382;14.666;2023-04-06T08:19:12;4.90;98.50
59015;DHT22;44799;53.382;14.666;2023-04-06T08:24:05;7.60;98.20
59015;DHT22;44799;53.382;14.666;2023-04-06T08:26:31;7.80;98.30
59015;DHT22;44799;53.382;14.666;2023-04-06T08:28:57;6.30;98.00
59015;DHT22;44799;53.382;14.666;2023-04-06T08:31:23;8.60;96.70
59015;DHT22;44799;53.382;14.666;2023-04-06T08:33:48;7.40;99.90
59015;DHT22;44799;53.382;14.666;2023-04-06T08:38:40;5.20;96.50
59015;DHT22;44799;53.382;14.666;2023-04-06T08:41:10;8.40;96.70
59015;DHT22;44799;53.382;14.666;2023-04-06T08:43:41;7.30;94.40
59015;DHT22;44799;53.382;14.666;2023-04-06T08:46:08;6.30;95.20
59015;DHT22;44799;53.382;14.666;2023-04-06T08:48:34;9.00;95.30
59015;DHT22;44799;53.382;14.666;2023-04-06T08:51:00;8.20;94.00
59015;DHT22;44799;53.382;14.666;2023-04-06T08:53:26;6.70;94.50
59015;DHT22;44799;53.382;14.666;2023-04-06T08:55:52;9.10;94.00
59015;DHT22;44799;53.382;14.666;2023-04-06T08:58:17;6.10;93.90
59015;DHT22;44799;53.382;14.666;2023-04-06T09:00:44;7.50;93.10
59015;DHT22;44799;53.382;14.666;2023-04-06T09:05:35;6.20;93.00
59015;DHT22;44799;53.382;14.666;2023-04-06T09:08:01;7.40;93.10
59015;DHT22;44799;53.382;14.666;2023-04-06T09:10:27;6.00;92.10
59015;DHT22;44799;53.382;14.666;2023-04-06T09:13:02;8.20;88.80
59015;DHT22;44799;53.382;14.666;2023-04-06T09:15:28;9.50;89.00
59015;DHT22;44799;53.382;14.666;2023-04-06T09:17:53;10.20;91.00
59015;DHT22;44799;53.382;14.666;2023-04-06T09:20:23;8.10;86.10
59015;DHT22;44799;53.382;14.666;2023-04-06T09:25:20;8.40;90.40
59015;DHT22;44799;53.382;14.666;2023-04-06T09:27:46;9.00;91.00
59015;DHT22;44799;53.382;14.666;2023-04-06T09:30:12;8.10;86.80
59015;DHT22;44799;53.382;14.666;2023-04-06T09:32:45;9.80;92.50
59015;DHT22;44799;53.382;14.666;2023-04-06T09:35:12;10.00;90.60
59015;DHT22;44799;53.382;14.666;2023-04-06T09:40:05;9.00;90.10
59015;DHT22;44799;53.382;14.666;2023-04-06T09:42:31;9.10;90.10
59015;DHT22;44799;53.382;14.666;2023-04-06T09:44:57;7.00;87.20
59015;DHT22;44799;53.382;14.666;2023-04-06T09:47:23;8.50;83.50
59015;DHT22;44799;53.382;14.666;2023-04-06T09:49:50;7.40;83.60
59015;DHT22;44799;53.382;14.666;2023-04-06T09:52:15;7.30;85.50
59015;DHT22;44799;53.382;14.666;2023-04-06T09:54:42;11.10;88.40
59015;DHT22;44799;53.382;14.666;2023-04-06T09:57:13;11.50;83.80
59015;DHT22;44799;53.382;14.666;2023-04-06T09:59:44;6.80;82.10
59015;DHT22;44799;53.382;14.666;2023-04-06T10:02:18;7.30;83.50
59015;DHT22;44799;53.382;14.666;2023-04-06T10:04:49;11.20;85.60
59015;DHT22;44799;53.382;14.666;2023-04-06T10:07:15;7.60;84.60
59015;DHT22;44799;53.382;14.666;2023-04-06T10:09:42;8.00;84.50
59015;DHT22;44799;53.382;14.666;2023-04-06T10:14:36;10.30;82.40
59015;DHT22;44799;53.382;14.666;2023-04-06T10:17:05;8.20;78.70
59015;DHT22;44799;53.382;14.666;2023-04-06T10:19:36;11.50;80.60
59015;DHT22;44799;53.382;14.666;2023-04-06T10:22:02;9.70;75.20
59015;DHT22;44799;53.382;14.666;2023-04-06T10:24:28;9.60;75.90
59015;DHT22;44799;53.382;14.666;2023-04-06T10:29:20;8.60;76.90
59015;DHT22;44799;53.382;14.666;2023-04-06T10:31:46;8.70;81.70
59015;DHT22;44799;53.382;14.666;2023-04-06T10:34:14;8.60;82.00
59015;DHT22;44799;53.382;14.666;2023-04-06T10:36:40;12.00;82.70
59015;DHT22;44799;53.382;14.666;2023-04-06T10:43:58;11.60;82.00
59015;DHT22;44799;53.382;14.666;2023-04-06T10:46:25;7.80;81.20
59015;DHT22;44799;53.382;14.666;2023-04-06T10:51:17;8.50;78.80
59015;DHT22;44799;53.382;14.666;2023-04-06T10:53:47;10.70;81.90
59015;DHT22;44799;53.382;14.666;2023-04-06T10:56:14;7.80;81.60
59015;DHT22;44799;53.382;14.666;2023-04-06T10:58:43;7.90;80.50
59015;DHT22;44799;53.382;14.666;2023-04-06T11:01:10;10.70;82.10
59015;DHT22;44799;53.382;14.666;2023-04-06T11:03:46;8.10;78.10
59015;DHT22;44799;53.382;14.666;2023-04-06T11:06:21;10.50;81.20
59015;DHT22;44799;53.382;14.666;2023-04-06T11:08:47;10.20;81.70
59015;DHT22;44799;53.382;14.666;2023-04-06T11:11:14;8.80;76.20
59015;DHT22;44799;53.382;14.666;2023-04-06T11:16:11;7.90;81.50
59015;DHT22;44799;53.382;14.666;2023-04-06T11:18:37;8.20;82.40
59015;DHT22;44799;53.382;14.666;2023-04-06T11:21:03;7.40;82.30
59015;DHT22;44799;53.382;14.666;2023-04-06T11:23:28;7.90;81.10
59015;DHT22;44799;53.382;14.666;2023-04-06T11:25:54;8.30;78.10
59015;DHT22;44799;53.382;14.666;2023-04-06T11:30:46;10.50;79.00
59015;DHT22;44799;53.382;14.666;2023-04-06T11:33:19;8.90;74.10
59015;DHT22;44799;53.382;14.666;2023-04-06T11:38:11;8.70;76.20
59015;DHT22;44799;53.382;14.666;2023-04-06T11:40:37;9.10;77.30
59015;DHT22;44799;53.382;14.666;2023-04-06T11:43:03;11.30;79.50
59015;DHT22;44799;53.382;14.666;2023-04-06T11:45:38;11.70;78.50
59015;DHT22;44799;53.382;14.666;2023-04-06T11:48:04;9.30;72.70
59015;DHT22;44799;53.382;14.666;2023-04-06T11:52:59;8.00;82.10
59015;DHT22;44799;53.382;14.666;2023-04-06T11:55:26;10.70;80.50
59015;DHT22;44799;53.382;14.666;2023-04-06T11:57:51;9.60;77.20
59015;DHT22;44799;53.382;14.666;2023-04-06T12:00:17;8.60;83.20
59015;DHT22;44799;53.382;14.666;2023-04-06T12:02:47;9.60;79.70
59015;DHT22;44799;53.382;14.666;2023-04-06T12:05:12;7.90;80.60
59015;DHT22;44799;53.382;14.666;2023-04-06T12:07:38;8.40;81.00
59015;DHT22;44799;53.382;14.666;2023-04-06T12:10:04;9.80;77.30
59015;DHT22;44799;53.382;14.666;2023-04-06T12:12:30;8.60;80.60
59015;DHT22;44799;53.382;14.666;2023-04-06T12:14:56;8.80;79.60
59015;DHT22;44799;53.382;14.666;2023-04-06T12:19:48;8.90;78.60
59015;DHT22;44799;53.382;14.666;2023-04-06T12:22:14;9.30;79.10
59015;DHT22;44799;53.382;14.666;2023-04-06T12:24:39;9.30;78.10
59015;DHT22;44799;53.382;14.666;2023-04-06T12:27:05;11.20;77.60
59015;DHT22;44799;53.382;14.666;2023-04-06T12:29:31;8.90;78.30
59015;DHT22;44799;53.382;14.666;2023-04-06T12:31:56;11.80;79.10
59015;DHT22;44799;53.382;14.666;2023-04-06T12:34:22;10.30;75.30
59015;DHT22;44799;53.382;14.666;2023-04-06T12:36:48;12.20;78.50
59015;DHT22;44799;53.382;14.666;2023-04-06T12:41:39;12.60;78.90
59015;DHT22;44799;53.382;14.666;2023-04-06T12:44:08;12.70;76.60
59015;DHT22;44799;53.382;14.666;2023-04-06T12:46:34;10.40;74.40
59015;DHT22;44799;53.382;14.666;2023-04-06T12:49:00;11.60;77.30
59015;DHT22;44799;53.382;14.666;2023-04-06T12:51:29;9.50;76.10
59015;DHT22;44799;53.382;14.666;2023-04-06T12:53:56;12.50;76.00
59015;DHT22;44799;53.382;14.666;2023-04-06T12:56:22;9.30;74.20
59015;DHT22;44799;53.382;14.666;2023-04-06T12:58:50;9.40;72.40
59015;DHT22;44799;53.382;14.666;2023-04-06T13:01:16;9.10;74.90
59015;DHT22;44799;53.382;14.666;2023-04-06T13:03:41;9.80;73.60
59015;DHT22;44799;53.382;14.666;2023-04-06T13:06:07;11.50;73.40
59015;DHT22;44799;53.382;14.666;2023-04-06T13:08:37;10.30;74.10
59015;DHT22;44799;53.382;14.666;2023-04-06T13:11:03;9.90;75.30
59015;DHT22;44799;53.382;14.666;2023-04-06T13:13:29;11.80;73.60
59015;DHT22;44799;53.382;14.666;2023-04-06T13:15:59;10.50;75.30
59015;DHT22;44799;53.382;14.666;2023-04-06T13:18:25;11.60;73.30
59015;DHT22;44799;53.382;14.666;2023-04-06T13:23:16;10.00;75.20
59015;DHT22;44799;53.382;14.666;2023-04-06T13:28:08;9.80;73.50
59015;DHT22;44799;53.382;14.666;2023-04-06T13:30:35;13.00;73.80
59015;DHT22;44799;53.382;14.666;2023-04-06T13:33:01;13.40;73.40
59015;DHT22;44799;53.382;14.666;2023-04-06T13:35:27;10.20;73.50
59015;DHT22;44799;53.382;14.666;2023-04-06T13:37:52;14.10;74.30
59015;DHT22;44799;53.382;14.666;2023-04-06T13:40:18;11.90;69.10
59015;DHT22;44799;53.382;14.666;2023-04-06T13:42:44;12.00;67.30
59015;DHT22;44799;53.382;14.666;2023-04-06T13:45:11;11.20;69.20
59015;DHT22;44799;53.382;14.666;2023-04-06T13:47:37;12.10;71.40
59015;DHT22;44799;53.382;14.666;2023-04-06T13:50:03;12.20;65.50
59015;DHT22;44799;53.382;14.666;2023-04-06T13:52:29;13.20;61.30
59015;DHT22;44799;53.382;14.666;2023-04-06T13:54:54;13.40;64.10
59015;DHT22;44799;53.382;14.666;2023-04-06T13:57:20;15.20;65.00
59015;DHT22;44799;53.382;14.666;2023-04-06T13:59:46;13.10;62.30
59015;DHT22;44799;53.382;14.666;2023-04-06T14:02:12;15.20;64.30
59015;DHT22;44799;53.382;14.666;2023-04-06T14:07:03;14.30;56.10
59015;DHT22;44799;53.382;14.666;2023-04-06T14:11:58;14.30;61.80
59015;DHT22;44799;53.382;14.666;2023-04-06T14:14:24;14.50;62.50
59015;DHT22;44799;53.382;14.666;2023-04-06T14:19:17;13.70;64.30
59015;DHT22;44799;53.382;14.666;2023-04-06T14:21:43;13.30;64.50
59015;DHT22;44799;53.382;14.666;2023-04-06T14:26:36;12.70;65.00
59015;DHT22;44799;53.382;14.666;2023-04-06T14:29:05;12.90;61.20
59015;DHT22;44799;53.382;14.666;2023-04-06T14:33:57;11.80;68.30
59015;DHT22;44799;53.382;14.666;2023-04-06T14:36:23;12.00;68.50
59015;DHT22;44799;53.382;14.666;2023-04-06T14:38:48;11.40;67.80
59015;DHT22;44799;53.382;14.666;2023-04-06T14:41:18;12.20;71.30
59015;DHT22;44799;53.382;14.666;2023-04-06T14:46:10;11.70;68.70
59015;DHT22;44799;53.382;14.666;2023-04-06T14:48:35;10.90;69.40
59015;DHT22;44799;53.382;14.666;2023-04-06T14:53:28;11.90;68.80
59015;DHT22;44799;53.382;14.666;2023-04-06T14:55:54;11.40;70.20
59015;DHT22;44799;53.382;14.666;2023-04-06T14:58:20;10.50;69.50
59015;DHT22;44799;53.382;14.666;2023-04-06T15:00:46;10.80;70.20
59015;DHT22;44799;53.382;14.666;2023-04-06T15:03:12;11.60;71.00
59015;DHT22;44799;53.382;14.666;2023-04-06T15:05:37;10.30;71.00
59015;DHT22;44799;53.382;14.666;2023-04-06T15:08:03;10.20;68.40
59015;DHT22;44799;53.382;14.666;2023-04-06T15:10:32;10.20;70.40
59015;DHT22;44799;53.382;14.666;2023-04-06T15:15:24;11.80;68.50
59015;DHT22;44799;53.382;14.666;2023-04-06T15:17:50;10.60;68.90
59015;DHT22;44799;53.382;14.666;2023-04-06T15:20:15;10.80;66.30
59015;DHT22;44799;53.382;14.666;2023-04-06T15:22:41;11.40;67.50
59015;DHT22;44799;53.382;14.666;2023-04-06T15:25:07;13.40;68.50
59015;DHT22;44799;53.382;14.666;2023-04-06T15:27:32;11.90;63.70
59015;DHT22;44799;53.382;14.666;2023-04-06T15:29:58;12.60;67.00
59015;DHT22;44799;53.382;14.666;2023-04-06T15:32:24;13.40;64.40
59015;DHT22;44799;53.382;14.666;2023-04-06T15:37:17;12.90;60.10
59015;DHT22;44799;53.382;14.666;2023-04-06T15:39:42;14.20;61.20
59015;DHT22;44799;53.382;14.666;2023-04-06T15:42:08;14.10;60.30
59015;DHT22;44799;53.382;14.666;2023-04-06T15:44:34;17.60;60.10
59015;DHT22;44799;53.382;14.666;2023-04-06T15:47:00;14.50;59.30
59015;DHT22;44799;53.382;14.666;2023-04-06T15:49:25;15.20;58.60
59015;DHT22;44799;53.382;14.666;2023-04-06T15:51:51;16.20;57.00
59015;DHT22;44799;53.382;14.666;2023-04-06T15:56:45;15.80;55.70
59015;DHT22;44799;53.382;14.666;2023-04-06T15:59:11;16.80;52.40
59015;DHT22;44799;53.382;14.666;2023-04-06T16:01:36;17.00;55.00
59015;DHT22;44799;53.382;14.666;2023-04-06T16:04:05;17.40;56.80
59015;DHT22;44799;53.382;14.666;2023-04-06T16:06:31;17.00;56.50
59015;DHT22;44799;53.382;14.666;2023-04-06T16:11:23;16.10;56.10
59015;DHT22;44799;53.382;14.666;2023-04-06T16:13:48;16.60;57.00
59015;DHT22;44799;53.382;14.666;2023-04-06T16:18:40;17.20;57.80
59015;DHT22;44799;53.382;14.666;2023-04-06T16:21:05;15.70;66.30
59015;DHT22;44799;53.382;14.666;2023-04-06T16:23:31;16.00;59.70
59015;DHT22;44799;53.382;14.666;2023-04-06T16:25:57;14.30;60.70
59015;DHT22;44799;53.382;14.666;2023-04-06T16:28:23;15.80;59.70
59015;DHT22;44799;53.382;14.666;2023-04-06T16:30:49;14.10;61.70
59015;DHT22;44799;53.382;14.666;2023-04-06T16:33:15;14.30;64.90
59015;DHT22;44799;53.382;14.666;2023-04-06T16:35:44;12.70;59.50
59015;DHT22;44799;53.382;14.666;2023-04-06T16:38:10;13.20;60.90
59015;DHT22;44799;53.382;14.666;2023-04-06T16:40:35;13.50;61.60
59015;DHT22;44799;53.382;14.666;2023-04-06T16:43:01;12.90;62.90
59015;DHT22;44799;53.382;14.666;2023-04-06T16:45:27;13.10;58.90
59015;DHT22;44799;53.382;14.666;2023-04-06T16:52:44;12.00;67.10
59015;DHT22;44799;53.382;14.666;2023-04-06T16:55:10;11.00;65.60
59015;DHT22;44799;53.382;14.666;2023-04-06T16:57:36;11.00;64.60
59015;DHT22;44799;53.382;14.666;2023-04-06T17:02:30;11.40;64.50
59015;DHT22;44799;53.382;14.666;2023-04-06T17:04:56;10.10;68.60
59015;DHT22;44799;53.382;14.666;2023-04-06T17:07:22;10.20;71.80
59015;DHT22;44799;53.382;14.666;2023-04-06T17:12:16;10.90;70.30
59015;DHT22;44799;53.382;14.666;2023-04-06T17:17:08;10.00;72.20
59015;DHT22;44799;53.382;14.666;2023-04-06T17:19:33;9.70;70.70
59015;DHT22;44799;53.382;14.666;2023-04-06T17:21:59;9.20;72.00
59015;DHT22;44799;53.382;14.666;2023-04-06T17:24:25;10.80;72.70
59015;DHT22;44799;53.382;14.666;2023-04-06T17:26:51;9.00;71.90
59015;DHT22;44799;53.382;14.666;2023-04-06T17:29:17;8.10;72.10
59015;DHT22;44799;53.382;14.666;2023-04-06T17:31:43;8.70;72.80
59015;DHT22;44799;53.382;14.666;2023-04-06T17:34:09;7.90;73.10
59015;DHT22;44799;53.382;14.666;2023-04-06T17:36:35;8.80;74.00
59015;DHT22;44799;53.382;14.666;2023-04-06T17:39:01;8.10;74.40
59015;DHT22;44799;53.382;14.666;2023-04-06T17:41:27;8.50;76.00
59015;DHT22;44799;53.382;14.666;2023-04-06T17:43:53;8.30;75.60
59015;DHT22;44799;53.382;14.666;2023-04-06T17:46:19;8.30;77.10